createdAt,value
2018-11-10T00:01:04.765Z,46.88
2018-11-10T00:03:38.293Z,41.85
2018-11-10T00:06:11.784Z,44.53
2018-11-10T00:08:45.392Z,45.60
2018-11-10T00:11:19.183Z,42.98
2018-11-10T00:13:52.936Z,45.60
2018-11-10T00:16:26.420Z,41.98
2018-11-10T00:18:59.991Z,42.98
2018-11-10T00:21:33.393Z,44.23
2018-11-10T00:24:07.062Z,44.00
2018-11-10T00:26:40.690Z,44.15
2018-11-10T00:29:14.192Z,43.20
2018-11-10T00:31:47.714Z,41.23
2018-11-10T00:34:21.366Z,42.17
2018-11-10T00:36:54.996Z,39.80
2018-11-10T00:39:28.685Z,40.33
2018-11-10T00:42:02.195Z,43.52
2018-11-10T00:44:35.700Z,41.25
2018-11-10T00:47:09.195Z,43.35
2018-11-10T00:49:42.856Z,41.35
2018-11-10T00:52:16.381Z,39.83
2018-11-10T00:54:49.740Z,41.05
2018-11-10T00:57:23.238Z,39.00
2018-11-10T00:59:56.687Z,41.45
2018-11-10T01:02:30.162Z,40.67
2018-11-10T01:05:03.865Z,38.15
2018-11-10T01:07:37.671Z,43.63
2018-11-10T01:10:12.536Z,42.62
2018-11-10T01:12:46.237Z,42.85
2018-11-10T01:15:19.835Z,39.60
2018-11-10T01:17:53.195Z,43.42
2018-11-10T01:20:26.872Z,41.53
2018-11-10T01:23:00.265Z,41.35
2018-11-10T01:25:33.759Z,41.98
2018-11-10T01:28:07.339Z,41.40
2018-11-10T01:30:40.933Z,39.40
2018-11-10T01:33:14.412Z,41.05
2018-11-10T01:35:47.945Z,40.00
2018-11-10T01:38:21.686Z,39.15
2018-11-10T01:40:55.136Z,40.10
2018-11-10T01:43:28.455Z,39.90
2018-11-10T01:46:02.089Z,40.85
2018-11-10T01:48:35.598Z,40.35
2018-11-10T01:51:09.042Z,37.75
2018-11-10T01:53:42.626Z,39.25
2018-11-10T01:56:16.345Z,39.55
2018-11-10T01:58:49.693Z,38.00
2018-11-10T02:01:23.220Z,39.08
2018-11-10T02:03:56.787Z,38.08
2018-11-10T02:06:30.681Z,40.33
2018-11-10T02:09:06.507Z,37.60
2018-11-10T02:11:40.048Z,39.45
2018-11-10T02:14:13.494Z,38.33
2018-11-10T02:16:47.843Z,38.50
2018-11-10T02:19:21.328Z,38.17
2018-11-10T02:21:54.770Z,38.58
2018-11-10T02:24:35.462Z,39.92
2018-11-10T02:27:14.740Z,38.83
2018-11-10T02:29:49.598Z,39.55
2018-11-10T02:32:23.160Z,39.35
2018-11-10T02:34:56.790Z,40.30
2018-11-10T02:37:30.464Z,38.53
2018-11-10T02:40:04.480Z,39.78
2018-11-10T02:42:37.919Z,38.25
2018-11-10T02:45:18.059Z,37.75
2018-11-10T02:47:51.627Z,40.40
2018-11-10T02:50:25.027Z,38.30
2018-11-10T02:52:58.590Z,38.35
2018-11-10T02:55:32.018Z,37.05
2018-11-10T02:58:05.621Z,37.35
2018-11-10T03:00:39.249Z,38.67
2018-11-10T03:03:12.615Z,36.35
2018-11-10T03:05:46.115Z,34.67
2018-11-10T03:08:19.475Z,37.13
2018-11-10T03:10:53.170Z,35.95
2018-11-10T03:13:26.425Z,33.35
2018-11-10T03:15:59.981Z,32.50
2018-11-10T03:18:33.347Z,32.95
2018-11-10T03:21:06.914Z,31.73
2018-11-10T03:23:40.495Z,34.05
2018-11-10T03:26:13.916Z,32.73
2018-11-10T03:28:47.211Z,32.98
2018-11-10T03:31:20.631Z,35.15
2018-11-10T03:33:54.073Z,33.13
2018-11-10T03:36:27.706Z,31.52
2018-11-10T03:39:01.275Z,34.18
2018-11-10T03:41:34.825Z,32.93
2018-11-10T03:44:08.453Z,31.70
2018-11-10T03:46:41.900Z,30.08
2018-11-10T03:49:15.223Z,31.48
2018-11-10T03:51:48.633Z,31.10
2018-11-10T03:54:22.328Z,31.05
2018-11-10T03:56:55.758Z,30.97
2018-11-10T03:59:29.223Z,30.15
2018-11-10T04:02:02.537Z,28.75
2018-11-10T04:04:35.885Z,29.10
2018-11-10T04:07:09.378Z,30.92
2018-11-10T04:09:43.114Z,29.02
2018-11-10T04:12:16.634Z,28.32
2018-11-10T04:14:50.212Z,28.42
2018-11-10T04:17:23.584Z,28.92
2018-11-10T04:19:57.050Z,29.23
2018-11-10T04:22:33.204Z,27.93
2018-11-10T04:25:08.411Z,27.42
2018-11-10T04:27:41.858Z,28.27
2018-11-10T04:30:15.325Z,29.05
2018-11-10T04:32:48.824Z,28.27
2018-11-10T04:35:22.117Z,29.70
2018-11-10T04:37:55.818Z,28.73
2018-11-10T04:40:29.196Z,27.93
2018-11-10T04:43:02.785Z,27.65
2018-11-10T04:45:36.238Z,28.45
2018-11-10T04:48:09.710Z,28.98
2018-11-10T04:50:43.376Z,28.00
2018-11-10T04:53:17.043Z,26.35
2018-11-10T04:55:50.509Z,27.13
2018-11-10T04:58:23.867Z,27.27
2018-11-10T05:00:57.373Z,27.85
2018-11-10T05:03:30.804Z,28.85
2018-11-10T05:06:04.684Z,28.87
2018-11-10T05:08:38.354Z,28.62
2018-11-10T05:11:11.844Z,27.32
2018-11-10T05:13:45.318Z,28.30
2018-11-10T05:16:18.978Z,27.80
2018-11-10T05:18:52.345Z,27.85
2018-11-10T05:21:25.806Z,28.35
2018-11-10T05:23:59.357Z,27.77
2018-11-10T05:26:32.772Z,29.77
2018-11-10T05:29:07.127Z,26.33
2018-11-10T05:31:40.959Z,26.62
2018-11-10T05:34:14.640Z,27.35
2018-11-10T05:36:48.307Z,28.00
2018-11-10T05:39:21.610Z,27.67
2018-11-10T05:41:55.205Z,27.20
2018-11-10T05:44:28.809Z,27.40
2018-11-10T05:47:02.394Z,27.25
2018-11-10T05:49:35.997Z,26.15
2018-11-10T05:52:09.438Z,25.02
2018-11-10T05:54:43.027Z,25.80
2018-11-10T05:57:16.773Z,26.15
2018-11-10T05:59:50.476Z,24.35
2018-11-10T06:02:23.897Z,24.98
2018-11-10T06:04:57.537Z,25.48
2018-11-10T06:07:31.104Z,25.12
2018-11-10T06:10:12.356Z,25.80
2018-11-10T06:12:45.588Z,24.80
2018-11-10T06:15:19.278Z,26.95
2018-11-10T06:17:53.124Z,26.35
2018-11-10T06:20:26.693Z,25.12
2018-11-10T06:23:00.247Z,25.80
2018-11-10T06:25:33.752Z,26.82
2018-11-10T06:28:07.046Z,25.77
2018-11-10T06:30:40.591Z,26.65
2018-11-10T06:33:13.905Z,27.07
2018-11-10T06:35:47.372Z,27.48
2018-11-10T06:38:20.908Z,26.97
2018-11-10T06:40:54.436Z,28.20
2018-11-10T06:43:27.857Z,28.07
2018-11-10T06:46:01.467Z,28.10
2018-11-10T06:48:34.967Z,28.55
2018-11-10T06:51:08.706Z,29.32
2018-11-10T06:53:42.235Z,27.90
2018-11-10T06:56:15.493Z,28.00
2018-11-10T06:58:48.953Z,28.90
2018-11-10T07:01:22.475Z,28.77
2018-11-10T07:03:56.042Z,28.70
2018-11-10T07:06:29.755Z,29.67
2018-11-10T07:09:05.352Z,27.98
2018-11-10T07:11:39.410Z,28.45
2018-11-10T07:14:12.874Z,29.85
2018-11-10T07:16:46.295Z,27.90
2018-11-10T07:19:19.941Z,27.15
2018-11-10T07:21:53.644Z,27.10
2018-11-10T07:24:27.238Z,28.98
2018-11-10T07:27:00.733Z,27.45
2018-11-10T07:29:34.299Z,27.35
2018-11-10T07:32:08.012Z,28.77
2018-11-10T07:34:41.465Z,28.60
2018-11-10T07:37:15.013Z,27.40
2018-11-10T07:39:48.500Z,27.10
2018-11-10T07:42:22.101Z,26.10
2018-11-10T07:44:55.717Z,27.58
2018-11-10T07:47:29.323Z,26.73
2018-11-10T07:50:02.832Z,26.50
2018-11-10T07:52:36.359Z,27.22
2018-11-10T07:55:11.659Z,26.70
2018-11-10T07:57:45.335Z,24.65
2018-11-10T08:00:18.960Z,24.45
2018-11-10T08:02:52.600Z,23.32
2018-11-10T08:05:26.331Z,23.35
2018-11-10T08:07:59.763Z,23.05
2018-11-10T08:10:33.683Z,23.22
2018-11-10T08:13:07.247Z,21.42
2018-11-10T08:15:41.068Z,22.87
2018-11-10T08:18:14.745Z,21.48
2018-11-10T08:20:48.258Z,22.17
2018-11-10T08:23:21.692Z,23.20
2018-11-10T08:25:55.055Z,23.98
2018-11-10T08:28:29.198Z,21.45
2018-11-10T08:31:02.971Z,21.20
2018-11-10T08:33:43.347Z,20.10
2018-11-10T08:36:17.191Z,22.10
2018-11-10T08:38:51.007Z,22.02
2018-11-10T08:41:24.569Z,21.52
2018-11-10T08:43:58.050Z,21.33
2018-11-10T08:46:31.629Z,22.55
2018-11-10T08:49:05.272Z,20.97
2018-11-10T08:51:39.676Z,22.20
2018-11-10T08:54:13.247Z,20.37
2018-11-10T08:56:46.952Z,20.85
2018-11-10T08:59:20.387Z,19.00
2018-11-10T09:01:53.936Z,20.05
2018-11-10T09:04:27.357Z,20.02
2018-11-10T09:07:00.932Z,18.92
2018-11-10T09:09:34.494Z,20.15
2018-11-10T09:12:08.669Z,19.23
2018-11-10T09:14:42.146Z,19.90
2018-11-10T09:17:15.633Z,20.45
2018-11-10T09:19:49.136Z,21.15
2018-11-10T09:22:22.764Z,19.95
2018-11-10T09:24:56.434Z,20.40
2018-11-10T09:27:30.000Z,18.80
2018-11-10T09:30:03.328Z,19.40
2018-11-10T09:32:37.134Z,19.15
2018-11-10T09:35:12.029Z,20.05
2018-11-10T09:37:46.283Z,19.10
2018-11-10T09:40:19.679Z,18.77
2018-11-10T09:42:53.141Z,20.62
2018-11-10T09:45:27.008Z,19.05
2018-11-10T09:48:00.447Z,17.57
2018-11-10T09:50:34.218Z,19.37
2018-11-10T09:53:07.857Z,19.90
2018-11-10T09:55:41.519Z,18.00
2018-11-10T09:58:15.427Z,17.27
2018-11-10T10:00:49.206Z,17.42
2018-11-10T10:03:22.697Z,17.17
2018-11-10T10:05:56.304Z,17.42
2018-11-10T10:08:29.797Z,18.15
2018-11-10T10:11:03.363Z,17.35
2018-11-10T10:13:37.102Z,17.35
2018-11-10T10:16:10.777Z,15.18
2018-11-10T10:18:44.413Z,15.68
2018-11-10T10:21:18.120Z,15.43
2018-11-10T10:23:51.926Z,15.72
2018-11-10T10:26:25.632Z,14.23
2018-11-10T10:28:59.334Z,14.23
2018-11-10T10:31:33.567Z,14.03
2018-11-10T10:34:07.144Z,13.85
2018-11-10T10:36:40.666Z,14.60
2018-11-10T10:39:14.156Z,12.07
2018-11-10T10:41:47.764Z,13.13
2018-11-10T10:44:21.593Z,14.70
2018-11-10T10:46:55.296Z,12.65
2018-11-10T10:49:29.137Z,12.55
2018-11-10T10:52:02.740Z,12.65
2018-11-10T10:54:36.437Z,10.70
2018-11-10T10:57:10.279Z,10.13
2018-11-10T10:59:43.667Z,8.85
2018-11-10T11:02:23.096Z,10.48
2018-11-10T11:04:58.798Z,10.20
2018-11-10T11:07:32.293Z,9.68
2018-11-10T11:10:06.060Z,8.55
2018-11-10T11:12:39.557Z,8.38
2018-11-10T11:15:13.072Z,7.85
2018-11-10T11:17:46.636Z,8.33
2018-11-10T11:20:20.267Z,7.83
2018-11-10T11:22:54.132Z,8.10
2018-11-10T11:25:27.760Z,7.67
2018-11-10T11:28:01.184Z,8.15
2018-11-10T11:30:34.692Z,6.62
2018-11-10T11:33:08.360Z,7.42
2018-11-10T11:35:42.143Z,7.30
2018-11-10T11:38:15.773Z,8.35
2018-11-10T11:40:49.406Z,7.15
2018-11-10T11:43:23.051Z,9.73
2018-11-10T11:45:56.398Z,7.90
2018-11-10T11:48:30.067Z,9.73
2018-11-10T11:51:03.691Z,9.13
2018-11-10T11:53:37.274Z,6.90
2018-11-10T11:56:10.855Z,7.17
2018-11-10T11:58:44.581Z,7.95
2018-11-10T12:01:18.162Z,7.03
2018-11-10T12:03:51.599Z,7.08
2018-11-10T12:06:25.097Z,7.35
2018-11-10T12:08:58.777Z,7.20
2018-11-10T12:11:32.285Z,7.37
2018-11-10T12:14:12.559Z,7.67
2018-11-10T12:16:46.503Z,7.17
2018-11-10T12:19:20.053Z,7.22
2018-11-10T12:21:53.598Z,7.10
2018-11-10T12:24:27.246Z,6.83
2018-11-10T12:27:00.793Z,7.67
2018-11-10T12:29:34.562Z,8.48
2018-11-10T12:32:07.960Z,8.80
2018-11-10T12:34:41.519Z,8.45
2018-11-10T12:37:15.071Z,9.18
2018-11-10T12:39:48.614Z,7.08
2018-11-10T12:42:22.077Z,7.97
2018-11-10T12:44:55.604Z,8.13
2018-11-10T12:47:29.371Z,7.87
2018-11-10T12:50:02.785Z,8.15
2018-11-10T12:52:36.362Z,7.65
2018-11-10T12:55:11.400Z,7.72
2018-11-10T12:57:45.878Z,8.20
2018-11-10T13:00:19.363Z,7.65
2018-11-10T13:02:52.957Z,8.28
2018-11-10T13:05:26.750Z,7.90
2018-11-10T13:08:00.692Z,7.92
2018-11-10T13:10:34.535Z,8.40
2018-11-10T13:13:07.948Z,8.70
2018-11-10T13:15:41.663Z,8.83
2018-11-10T13:18:15.257Z,8.40
2018-11-10T13:20:48.683Z,7.90
2018-11-10T13:23:22.418Z,8.40
2018-11-10T13:25:55.879Z,9.85
2018-11-10T13:28:29.483Z,9.03
2018-11-10T13:31:03.145Z,8.50
2018-11-10T13:33:36.480Z,8.53
2018-11-10T13:36:10.189Z,8.55
2018-11-10T13:38:43.683Z,8.60
2018-11-10T13:41:17.081Z,8.38
2018-11-10T13:43:51.008Z,9.03
2018-11-10T13:46:24.504Z,8.68
2018-11-10T13:48:58.120Z,8.10
2018-11-10T13:51:31.784Z,9.40
2018-11-10T13:54:05.629Z,9.40
2018-11-10T13:56:39.066Z,10.30
2018-11-10T13:59:13.189Z,9.15
2018-11-10T14:01:46.638Z,9.85
2018-11-10T14:04:20.010Z,8.70
2018-11-10T14:06:53.646Z,11.00
2018-11-10T14:09:27.222Z,10.23
2018-11-10T14:12:07.762Z,9.28
2018-11-10T14:14:41.310Z,10.80
2018-11-10T14:17:15.075Z,10.13
2018-11-10T14:19:48.607Z,9.40
2018-11-10T14:22:22.153Z,8.75
2018-11-10T14:24:55.815Z,9.70
2018-11-10T14:27:30.407Z,10.75
2018-11-10T14:30:05.813Z,10.65
2018-11-10T14:32:39.582Z,11.12
2018-11-10T14:35:13.393Z,10.98
2018-11-10T14:37:46.826Z,10.88
2018-11-10T14:40:20.324Z,10.28
2018-11-10T14:42:53.880Z,9.65
2018-11-10T14:45:27.309Z,9.63
2018-11-10T14:48:00.899Z,9.65
2018-11-10T14:50:34.324Z,9.93
2018-11-10T14:53:07.925Z,10.32
2018-11-10T14:55:41.478Z,10.10
2018-11-10T14:58:15.100Z,10.60
2018-11-10T15:00:48.571Z,9.65
2018-11-10T15:03:22.138Z,10.60
2018-11-10T15:05:55.884Z,10.78
2018-11-10T15:08:29.343Z,10.30
2018-11-10T15:11:02.910Z,10.90
2018-11-10T15:13:36.590Z,10.95
2018-11-10T15:16:10.378Z,11.40
2018-11-10T15:18:43.789Z,11.05
2018-11-10T15:21:17.444Z,11.68
2018-11-10T15:23:51.131Z,12.20
2018-11-10T15:26:24.587Z,12.55
2018-11-10T15:28:58.050Z,12.37
2018-11-10T15:31:31.482Z,12.15
2018-11-10T15:34:05.701Z,11.10
2018-11-10T15:36:39.355Z,11.95
2018-11-10T15:39:12.881Z,12.15
2018-11-10T15:41:46.409Z,12.78
2018-11-10T15:44:20.055Z,11.73
2018-11-10T15:46:53.632Z,11.95
2018-11-10T15:49:26.978Z,12.80
2018-11-10T15:52:00.316Z,11.73
2018-11-10T15:54:34.176Z,12.65
2018-11-10T15:57:07.712Z,12.40
2018-11-10T15:59:41.183Z,11.95
2018-11-10T16:02:14.826Z,12.68
2018-11-10T16:04:48.289Z,11.97
2018-11-10T16:07:21.852Z,13.62
2018-11-10T16:09:57.207Z,13.68
2018-11-10T16:12:31.049Z,14.53
2018-11-10T16:15:06.420Z,13.13
2018-11-10T16:17:40.783Z,13.68
2018-11-10T16:20:17.856Z,14.58
2018-11-10T16:22:51.827Z,13.83
2018-11-10T16:25:26.537Z,14.95
2018-11-10T16:28:00.738Z,15.23
2018-11-10T16:30:34.267Z,15.05
2018-11-10T16:33:08.163Z,15.48
2018-11-10T16:35:42.327Z,15.60
2018-11-10T16:38:16.196Z,17.15
2018-11-10T16:40:49.935Z,15.38
2018-11-10T16:43:23.635Z,15.88
2018-11-10T16:45:57.373Z,15.75
2018-11-10T16:48:31.697Z,16.50
2018-11-10T16:51:06.671Z,16.20
2018-11-10T16:53:40.437Z,16.23
2018-11-10T16:56:14.125Z,16.30
2018-11-10T16:58:47.599Z,15.10
2018-11-10T17:01:21.412Z,16.35
2018-11-10T17:03:55.043Z,15.08
2018-11-10T17:06:29.120Z,15.93
2018-11-10T17:09:04.601Z,16.30
2018-11-10T17:11:38.033Z,15.20
2018-11-10T17:14:11.938Z,15.48
2018-11-10T17:16:45.636Z,15.28
2018-11-10T17:19:19.575Z,16.48
2018-11-10T17:21:53.213Z,16.75
2018-11-10T17:24:26.538Z,17.42
2018-11-10T17:27:15.075Z,16.85
2018-11-10T17:29:48.487Z,17.00
2018-11-10T17:32:22.327Z,16.20
2018-11-10T17:34:55.934Z,17.42
2018-11-10T17:37:29.355Z,17.45
2018-11-10T17:40:03.116Z,16.52
2018-11-10T17:42:36.876Z,16.57
2018-11-10T17:45:12.046Z,17.67
2018-11-10T17:47:45.615Z,17.40
2018-11-10T17:50:19.088Z,17.37
2018-11-10T17:52:52.507Z,17.25
2018-11-10T17:55:25.945Z,17.85
2018-11-10T17:57:59.772Z,18.12
2018-11-10T18:00:33.389Z,17.80
2018-11-10T18:03:06.946Z,17.12
2018-11-10T18:05:40.470Z,18.05
2018-11-10T18:08:13.868Z,18.27
2018-11-10T18:10:47.897Z,18.00
2018-11-10T18:13:21.584Z,17.73
2018-11-10T18:15:55.226Z,19.65
2018-11-10T18:18:28.754Z,17.75
2018-11-10T18:21:02.318Z,19.15
2018-11-10T18:23:35.797Z,19.50
2018-11-10T18:26:09.240Z,19.12
2018-11-10T18:28:42.818Z,20.02
2018-11-10T18:31:16.556Z,18.80
2018-11-10T18:33:50.152Z,19.30
2018-11-10T18:36:23.704Z,18.40
2018-11-10T18:38:57.115Z,20.85
2018-11-10T18:41:31.406Z,19.92
2018-11-10T18:44:05.419Z,19.77
2018-11-10T18:46:39.499Z,19.20
2018-11-10T18:49:13.438Z,19.65
2018-11-10T18:51:47.002Z,20.45
2018-11-10T18:54:21.312Z,20.82
2018-11-10T18:56:54.925Z,20.82
2018-11-10T18:59:28.270Z,20.37
2018-11-10T19:02:01.857Z,21.17
2018-11-10T19:04:35.606Z,19.80
2018-11-10T19:07:09.305Z,21.33
2018-11-10T19:09:42.874Z,20.05
2018-11-10T19:12:16.459Z,20.12
2018-11-10T19:14:50.012Z,19.85
2018-11-10T19:17:23.404Z,20.00
2018-11-10T19:19:57.029Z,19.02
2018-11-10T19:22:30.766Z,21.17
2018-11-10T19:25:05.380Z,21.10
2018-11-10T19:27:39.313Z,21.15
2018-11-10T19:30:14.162Z,20.27
2018-11-10T19:32:48.726Z,21.87
2018-11-10T19:35:22.284Z,21.85
2018-11-10T19:37:55.854Z,21.30
2018-11-10T19:40:29.553Z,21.62
2018-11-10T19:43:04.082Z,20.30
2018-11-10T19:45:37.633Z,21.10
2018-11-10T19:48:11.073Z,20.57
2018-11-10T19:50:44.755Z,18.60
2018-11-10T19:53:18.180Z,20.52
2018-11-10T19:55:51.694Z,21.25
2018-11-10T19:58:25.060Z,18.52
2018-11-10T20:00:58.592Z,17.45
2018-11-10T20:03:32.166Z,18.00
2018-11-10T20:06:05.795Z,17.52
2018-11-10T20:08:39.292Z,17.75
2018-11-10T20:11:12.855Z,17.67
2018-11-10T20:13:46.355Z,15.65
2018-11-10T20:16:19.821Z,16.50
2018-11-10T20:18:53.353Z,15.68
2018-11-10T20:21:26.851Z,16.10
2018-11-10T20:24:00.626Z,15.18
2018-11-10T20:26:34.176Z,15.70
2018-11-10T20:29:08.021Z,15.83
2018-11-10T20:31:41.932Z,14.70
2018-11-10T20:34:15.568Z,13.68
2018-11-10T20:36:49.234Z,14.45
2018-11-10T20:39:23.055Z,14.85
2018-11-10T20:41:56.609Z,15.70
2018-11-10T20:44:30.364Z,14.70
2018-11-10T20:47:03.884Z,13.83
2018-11-10T20:49:37.370Z,13.48
2018-11-10T20:52:10.750Z,13.05
2018-11-10T20:54:44.294Z,12.30
2018-11-10T20:57:17.776Z,11.57
2018-11-10T20:59:51.444Z,11.48
2018-11-10T21:02:25.118Z,11.53
2018-11-10T21:04:58.388Z,11.55
2018-11-10T21:07:32.020Z,11.50
2018-11-10T21:10:07.538Z,10.28
2018-11-10T21:12:41.523Z,10.65
2018-11-10T21:15:15.701Z,10.65
2018-11-10T21:17:49.405Z,10.20
2018-11-10T21:20:23.061Z,10.60
2018-11-10T21:22:56.560Z,10.35
2018-11-10T21:25:30.060Z,10.75
2018-11-10T21:28:03.618Z,11.20
2018-11-10T21:30:37.291Z,11.20
2018-11-10T21:33:10.865Z,11.12
2018-11-10T21:35:44.470Z,11.05
2018-11-10T21:38:17.919Z,10.32
2018-11-10T21:40:51.610Z,11.10
2018-11-10T21:43:25.140Z,10.68
2018-11-10T21:45:58.671Z,9.30
2018-11-10T21:48:32.323Z,9.38
2018-11-10T21:51:05.995Z,9.45
2018-11-10T21:53:39.436Z,8.60
2018-11-10T21:56:12.977Z,9.58
2018-11-10T21:58:46.659Z,9.85
2018-11-10T22:01:20.275Z,9.60
2018-11-10T22:03:53.753Z,8.80
2018-11-10T22:06:27.075Z,8.78
2018-11-10T22:09:00.626Z,9.23
2018-11-10T22:11:34.084Z,9.80
2018-11-10T22:14:07.973Z,10.68
2018-11-10T22:16:41.473Z,10.38
2018-11-10T22:19:14.948Z,10.05
2018-11-10T22:21:48.581Z,9.53
2018-11-10T22:24:22.142Z,9.55
2018-11-10T22:26:55.558Z,9.25
2018-11-10T22:29:29.153Z,8.85
2018-11-10T22:32:02.775Z,9.03
2018-11-10T22:34:36.338Z,9.00
2018-11-10T22:37:09.836Z,9.03
2018-11-10T22:39:43.217Z,9.40
2018-11-10T22:42:16.728Z,9.43
2018-11-10T22:44:50.291Z,9.23
2018-11-10T22:47:23.794Z,9.43
2018-11-10T22:49:57.415Z,9.18
2018-11-10T22:52:32.634Z,9.05
2018-11-10T22:55:07.398Z,8.90
2018-11-10T22:57:41.308Z,9.43
2018-11-10T23:00:21.409Z,8.65
2018-11-10T23:02:57.614Z,8.65
2018-11-10T23:05:31.076Z,8.63
2018-11-10T23:08:04.624Z,8.65
2018-11-10T23:10:38.458Z,9.05
2018-11-10T23:13:11.995Z,8.18
2018-11-10T23:15:46.416Z,8.98
2018-11-10T23:18:20.832Z,8.10
2018-11-10T23:20:54.308Z,8.70
2018-11-10T23:23:30.840Z,8.48
2018-11-10T23:26:04.598Z,9.38
2018-11-10T23:28:38.024Z,8.90
2018-11-10T23:31:11.368Z,8.43
2018-11-10T23:33:45.173Z,8.98
2018-11-10T23:36:18.566Z,9.30
2018-11-10T23:38:52.117Z,9.33
2018-11-10T23:41:25.562Z,9.05
2018-11-10T23:43:59.183Z,8.78
2018-11-10T23:46:32.636Z,8.53
2018-11-10T23:49:06.779Z,9.03
2018-11-10T23:51:40.176Z,7.92
2018-11-10T23:54:13.739Z,8.23
2018-11-10T23:56:47.395Z,8.93
2018-11-10T23:59:20.851Z,8.73
